Time;durP1;ratioP1;P1;durP2;ratioP2;P2;SDS_P1;SDS_P2;PMS_P1;PMS_P2;Temp;Humidity;BMP_temperature;BMP_pressure;BME280_temperature;BME280_humidity;BME280_pressure;Samples;Min_cycle;Max_cycle;Signal;HPM_P1;HPM_P2
2023/01/25 00:02:05;;;;;;;20.47;8.37;;;1.40;99.90;;;;;;5037058;28;20116;-66
2023/01/25 00:04:30;;;;;;;18.10;8.85;;;1.40;99.90;;;;;;5031308;28;20052;-66
2023/01/25 00:06:56;;;;;;;17.60;8.77;;;1.40;99.90;;;;;;5033626;28;20136;-65
2023/01/25 00:09:23;;;;;;;22.63;9.73;;;1.30;99.90;;;;;;5008168;28;20064;-65
2023/01/25 00:11:49;;;;;;;19.33;8.82;;;1.30;99.90;;;;;;5016624;28;20051;-65
2023/01/25 00:14:15;;;;;;;19.77;10.43;;;1.30;99.90;;;;;;5020169;28;20413;-66
2023/01/25 00:16:41;;;;;;;19.83;9.65;;;1.30;99.90;;;;;;5033470;28;20483;-65
2023/01/25 00:19:08;;;;;;;21.02;8.60;;;1.30;99.90;;;;;;5028493;28;20220;-65
2023/01/25 00:21:35;;;;;;;23.80;9.88;;;1.30;99.90;;;;;;5033886;28;20367;-65
2023/01/25 00:24:01;;;;;;;18.20;8.60;;;1.30;99.90;;;;;;5023391;28;20064;-65
2023/01/25 00:26:29;;;;;;;19.45;8.30;;;1.30;99.90;;;;;;5014197;28;20049;-65
2023/01/25 00:28:55;;;;;;;20.73;8.90;;;1.30;99.90;;;;;;5036813;28;20033;-65
2023/01/25 00:31:33;;;;;;;19.23;8.60;;;1.20;99.90;;;;;;5012575;28;20041;-66
2023/01/25 00:34:23;;;;;;;23.95;9.80;;;1.20;99.90;;;;;;5032156;28;20037;-66
2023/01/25 00:37:05;;;;;;;21.25;8.77;;;1.20;99.90;;;;;;5028806;28;20354;-66
2023/01/25 00:39:31;;;;;;;18.88;9.10;;;1.20;99.90;;;;;;5022879;28;20085;-66
2023/01/25 00:41:56;;;;;;;21.63;9.30;;;1.20;99.90;;;;;;5027765;28;20950;-66
2023/01/25 00:44:22;;;;;;;22.50;8.57;;;1.10;99.90;;;;;;5031623;28;20037;-66
2023/01/25 00:46:48;;;;;;;20.30;9.40;;;1.10;99.90;;;;;;5038200;28;20102;-66
2023/01/25 00:49:25;;;;;;;23.20;10.15;;;1.20;99.90;;;;;;5017264;28;20426;-66
2023/01/25 00:51:51;;;;;;;;;;;1.20;99.90;;;;;;5019454;28;20060;-66
2023/01/25 00:54:18;;;;;;;25.00;9.70;;;1.20;99.90;;;;;;5014443;28;19921;-66
2023/01/25 00:56:44;;;;;;;22.55;9.50;;;1.20;99.90;;;;;;5027087;28;20053;-66
2023/01/25 00:59:11;;;;;;;23.30;10.13;;;1.20;99.90;;;;;;5032918;28;20144;-66
2023/01/25 01:01:37;;;;;;;22.30;10.57;;;1.20;99.90;;;;;;5002510;28;20148;-66
2023/01/25 01:04:02;;;;;;;25.92;11.57;;;1.20;99.90;;;;;;5041358;22;20330;-70
2023/01/25 01:06:28;;;;;;;22.33;10.10;;;1.20;99.90;;;;;;5004394;28;20057;-70
2023/01/25 01:08:54;;;;;;;25.07;11.53;;;1.20;99.90;;;;;;4987996;28;20404;-71
2023/01/25 01:11:19;;;;;;;26.20;11.23;;;1.20;99.90;;;;;;5001016;28;20134;-71
2023/01/25 01:13:45;;;;;;;26.17;11.73;;;1.20;99.90;;;;;;5002939;28;20077;-70
2023/01/25 01:16:11;;;;;;;26.03;11.57;;;1.20;99.90;;;;;;4998544;28;20129;-71
2023/01/25 01:18:43;;;;;;;25.40;10.88;;;1.20;99.90;;;;;;4988137;28;20339;-70
2023/01/25 01:21:09;;;;;;;31.65;12.88;;;1.20;99.90;;;;;;4995940;28;20046;-76
2023/01/25 01:23:36;;;;;;;25.98;11.25;;;1.20;99.90;;;;;;5003308;28;20049;-70
2023/01/25 01:26:03;;;;;;;27.98;12.90;;;1.20;99.90;;;;;;4988912;28;20129;-70
2023/01/25 01:28:31;;;;;;;27.83;12.35;;;1.20;99.90;;;;;;4999056;28;20124;-70
2023/01/25 01:31:00;;;;;;;27.45;12.80;;;1.20;99.90;;;;;;4998115;28;20045;-70
2023/01/25 01:33:26;;;;;;;29.98;12.70;;;1.20;99.90;;;;;;4989804;28;20052;-70
2023/01/25 01:35:52;;;;;;;23.57;11.30;;;1.20;99.90;;;;;;5007977;28;20045;-71
2023/01/25 01:38:17;;;;;;;31.70;12.60;;;1.20;99.90;;;;;;4993232;28;20457;-70
2023/01/25 01:40:47;;;;;;;27.10;11.53;;;1.10;99.90;;;;;;5000274;28;20053;-70
2023/01/25 01:43:21;;;;;;;29.73;12.35;;;1.10;99.90;;;;;;4994456;28;20044;-70
2023/01/25 01:45:47;;;;;;;29.65;13.32;;;1.10;99.90;;;;;;5001751;28;20034;-70
2023/01/25 01:48:18;;;;;;;30.57;13.17;;;1.10;99.90;;;;;;4996313;28;20064;-70
2023/01/25 01:50:44;;;;;;;29.90;12.80;;;1.00;99.90;;;;;;5001715;28;20056;-70
2023/01/25 01:53:10;;;;;;;30.25;12.60;;;1.00;99.90;;;;;;5004089;28;20049;-70
2023/01/25 01:55:36;;;;;;;33.00;14.20;;;0.90;99.90;;;;;;4995736;28;20374;-71
2023/01/25 01:58:04;;;;;;;31.65;13.60;;;1.00;99.90;;;;;;5007493;28;20192;-70
2023/01/25 02:00:34;;;;;;;37.22;15.13;;;1.00;99.90;;;;;;4999119;28;20161;-70
2023/01/25 02:03:00;;;;;;;34.40;14.85;;;1.00;99.90;;;;;;4995416;28;20165;-70
2023/01/25 02:05:47;;;;;;;30.23;13.38;;;1.00;99.90;;;;;;4999622;28;20285;-70
2023/01/25 02:08:14;;;;;;;30.92;13.57;;;1.00;99.90;;;;;;4999646;28;20054;-70
2023/01/25 02:10:44;;;;;;;31.35;14.00;;;0.90;99.90;;;;;;4998794;28;20113;-71
2023/01/25 02:13:12;;;;;;;31.08;13.05;;;0.90;99.90;;;;;;5000144;28;20115;-70
2023/01/25 02:15:43;;;;;;;31.30;13.13;;;1.00;99.90;;;;;;5005449;28;20050;-70
2023/01/25 02:18:10;;;;;;;29.65;12.82;;;0.90;99.90;;;;;;5005649;28;20059;-70
2023/01/25 02:20:44;;;;;;;33.30;13.45;;;0.90;99.90;;;;;;5001805;28;20042;-70
2023/01/25 02:23:32;;;;;;;37.67;13.80;;;1.00;99.90;;;;;;5002812;28;20100;-71
2023/01/25 02:26:01;;;;;;;34.30;14.10;;;0.90;99.90;;;;;;4992711;28;20068;-70
2023/01/25 02:28:38;;;;;;;34.53;14.80;;;0.90;99.90;;;;;;4995295;28;20030;-70
2023/01/25 02:31:04;;;;;;;35.95;13.52;;;0.90;99.90;;;;;;4977884;28;20053;-70
2023/01/25 02:33:30;;;;;;;30.55;14.00;;;0.80;99.90;;;;;;5004783;28;20046;-70
2023/01/25 02:36:08;;;;;;;32.17;14.07;;;0.90;99.90;;;;;;4989446;28;20060;-70
2023/01/25 02:38:37;;;;;;;38.42;15.18;;;0.90;99.90;;;;;;4999489;28;20030;-70
2023/01/25 02:41:14;;;;;;;35.55;14.07;;;0.90;99.90;;;;;;4996509;28;20597;-70
2023/01/25 02:43:40;;;;;;;32.30;14.35;;;0.90;99.90;;;;;;4999297;28;20472;-70
2023/01/25 02:46:21;;;;;;;34.73;14.13;;;0.80;99.90;;;;;;4995761;28;20084;-70
2023/01/25 02:48:47;;;;;;;35.55;14.05;;;0.80;99.90;;;;;;5007517;28;20049;-71
2023/01/25 02:51:13;;;;;;;38.83;16.45;;;0.80;99.90;;;;;;5003353;28;20121;-70
2023/01/25 02:53:39;;;;;;;37.83;15.53;;;0.80;99.90;;;;;;5003071;28;20538;-70
2023/01/25 02:56:05;;;;;;;34.83;16.02;;;0.80;99.90;;;;;;5006740;28;20763;-70
2023/01/25 02:58:31;;;;;;;41.47;16.20;;;0.80;99.90;;;;;;5001260;28;20128;-70
2023/01/25 03:00:58;;;;;;;35.20;15.40;;;0.80;99.90;;;;;;5002914;28;20383;-71
2023/01/25 03:03:24;;;;;;;41.25;16.13;;;0.80;99.90;;;;;;5004543;28;20390;-70
2023/01/25 03:05:52;;;;;;;36.80;14.32;;;0.80;99.90;;;;;;4996323;28;20356;-70
2023/01/25 03:08:17;;;;;;;38.37;16.33;;;0.80;99.90;;;;;;5005239;28;20472;-71
2023/01/25 03:10:43;;;;;;;38.40;15.87;;;0.80;99.90;;;;;;5002425;28;20058;-70
2023/01/25 03:13:10;;;;;;;40.60;15.43;;;0.80;99.90;;;;;;5011361;28;20098;-70
2023/01/25 03:15:35;;;;;;;;;;;0.80;99.90;;;;;;4999051;28;20038;-70
2023/01/25 03:18:01;;;;;;;38.60;16.13;;;0.80;99.90;;;;;;4999118;28;20315;-70
2023/01/25 03:20:29;;;;;;;41.80;16.57;;;0.80;99.90;;;;;;4999536;28;20077;-70
2023/01/25 03:22:55;;;;;;;40.13;15.27;;;0.80;99.90;;;;;;4999754;28;20236;-70
2023/01/25 03:25:21;;;;;;;40.00;16.00;;;0.80;99.90;;;;;;5004048;28;22040;-70
2023/01/25 03:27:47;;;;;;;37.00;16.40;;;0.80;99.90;;;;;;5000418;28;20076;-70
2023/01/25 03:30:12;;;;;;;38.08;16.70;;;0.80;99.90;;;;;;5001614;28;20107;-70
2023/01/25 03:32:38;;;;;;;44.27;17.27;;;0.80;99.90;;;;;;5003371;28;20339;-70
2023/01/25 03:35:04;;;;;;;39.00;16.70;;;0.80;99.90;;;;;;5006648;28;20200;-70
2023/01/25 03:37:30;;;;;;;41.90;17.20;;;0.80;99.90;;;;;;5015493;28;20037;-71
2023/01/25 03:39:56;;;;;;;39.33;16.93;;;0.80;99.90;;;;;;5009890;28;20049;-70
2023/01/25 03:42:23;;;;;;;40.80;18.10;;;0.80;99.90;;;;;;5016639;28;20041;-72
2023/01/25 03:44:49;;;;;;;40.90;16.67;;;0.80;99.90;;;;;;5015252;28;20075;-70
2023/01/25 03:47:15;;;;;;;35.70;14.93;;;0.80;99.90;;;;;;5003252;28;20057;-70
2023/01/25 03:49:41;;;;;;;42.60;18.38;;;0.80;99.90;;;;;;5013306;28;20073;-76
2023/01/25 03:52:07;;;;;;;47.72;18.20;;;0.80;99.90;;;;;;5009099;28;20045;-75
2023/01/25 03:54:33;;;;;;;38.95;17.27;;;0.80;99.90;;;;;;5005567;28;20026;-70
2023/01/25 03:56:59;;;;;;;41.80;16.87;;;0.80;99.90;;;;;;5005016;28;20052;-70
2023/01/25 03:59:24;;;;;;;35.80;15.10;;;0.80;99.90;;;;;;5007689;28;20204;-70
2023/01/25 04:01:50;;;;;;;39.50;17.00;;;0.70;99.90;;;;;;5005752;28;20514;-70
2023/01/25 04:04:17;;;;;;;44.83;16.88;;;0.70;99.90;;;;;;4999773;28;20228;-69
2023/01/25 04:06:43;;;;;;;38.93;16.47;;;0.70;99.90;;;;;;5007428;28;20274;-70
2023/01/25 04:09:08;;;;;;;40.63;16.57;;;0.80;99.90;;;;;;5002245;28;20073;-70
2023/01/25 04:11:34;;;;;;;38.07;17.30;;;0.70;99.90;;;;;;4993444;28;20084;-70
2023/01/25 04:14:00;;;;;;;42.80;17.40;;;0.80;99.90;;;;;;5006945;28;20384;-70
2023/01/25 04:16:26;;;;;;;39.33;16.47;;;0.70;99.90;;;;;;5007135;28;20133;-70
2023/01/25 04:18:52;;;;;;;41.42;17.58;;;0.80;99.90;;;;;;5005860;28;20048;-70
2023/01/25 04:21:17;;;;;;;34.77;15.17;;;0.70;99.90;;;;;;5002668;28;20049;-70
2023/01/25 04:23:43;;;;;;;43.13;18.33;;;0.80;99.90;;;;;;5003154;28;20101;-70
2023/01/25 04:26:11;;;;;;;44.10;16.97;;;0.80;99.90;;;;;;4999495;28;20503;-70
2023/01/25 04:28:37;;;;;;;47.45;18.20;;;0.70;99.90;;;;;;4989146;28;20044;-70
2023/01/25 04:31:04;;;;;;;39.03;16.45;;;0.70;99.90;;;;;;5004787;28;20041;-70
2023/01/25 04:33:31;;;;;;;40.55;16.27;;;0.80;99.90;;;;;;5003631;28;20054;-70
2023/01/25 04:35:57;;;;;;;36.38;15.73;;;0.70;99.90;;;;;;5009069;28;20128;-70
2023/01/25 04:38:22;;;;;;;36.47;14.70;;;0.70;99.90;;;;;;5005652;28;20129;-70
2023/01/25 04:40:50;;;;;;;36.83;15.17;;;0.60;99.90;;;;;;5006284;28;20684;-70
2023/01/25 04:43:16;;;;;;;34.92;15.20;;;0.70;99.90;;;;;;5004735;28;20052;-71
2023/01/25 04:45:41;;;;;;;39.00;15.30;;;0.70;99.90;;;;;;5003740;28;20377;-70
2023/01/25 04:48:08;;;;;;;39.30;16.40;;;0.70;99.90;;;;;;5013522;28;20052;-70
2023/01/25 04:50:38;;;;;;;37.35;16.42;;;0.70;99.90;;;;;;5008742;28;20695;-70
2023/01/25 04:53:06;;;;;;;41.90;16.95;;;0.60;99.90;;;;;;5009291;28;20088;-70
2023/01/25 04:55:33;;;;;;;34.90;15.07;;;0.70;99.90;;;;;;5005102;28;20155;-70
2023/01/25 04:57:58;;;;;;;;;;;0.60;99.90;;;;;;5007036;28;20045;-70
2023/01/25 05:00:24;;;;;;;37.17;14.52;;;0.60;99.90;;;;;;4983252;28;20386;-70
2023/01/25 05:02:50;;;;;;;39.65;15.82;;;0.60;99.90;;;;;;5002723;28;20408;-70
2023/01/25 05:05:16;;;;;;;34.53;14.63;;;0.50;99.90;;;;;;5006495;28;20116;-69
2023/01/25 05:07:42;;;;;;;37.43;16.10;;;0.50;99.90;;;;;;5005653;28;20045;-70
2023/01/25 05:10:08;;;;;;;34.40;14.10;;;0.50;99.90;;;;;;5000629;28;20058;-70
2023/01/25 05:12:34;;;;;;;33.83;15.18;;;0.50;99.90;;;;;;5003617;28;20133;-70
2023/01/25 05:14:59;;;;;;;33.50;13.57;;;0.40;99.90;;;;;;5005105;28;20129;-69
2023/01/25 05:17:25;;;;;;;30.97;12.47;;;0.40;99.90;;;;;;5008366;28;20076;-68
2023/01/25 05:19:51;;;;;;;32.43;14.00;;;0.40;99.90;;;;;;4998313;28;20464;-68
2023/01/25 05:22:19;;;;;;;32.83;14.43;;;0.40;99.90;;;;;;5001797;28;20042;-69
2023/01/25 05:24:45;;;;;;;30.92;14.63;;;0.40;99.90;;;;;;5009142;28;20033;-68
2023/01/25 05:27:13;;;;;;;32.05;13.93;;;0.40;99.90;;;;;;5005592;28;20135;-68
2023/01/25 05:29:41;;;;;;;28.35;12.07;;;0.40;99.90;;;;;;5006729;28;20050;-68
2023/01/25 05:32:18;;;;;;;33.35;14.15;;;0.40;99.90;;;;;;4999065;28;20033;-68
2023/01/25 05:34:45;;;;;;;32.17;13.10;;;0.40;99.90;;;;;;5005019;28;20056;-68
2023/01/25 05:37:13;;;;;;;30.92;13.77;;;0.30;99.90;;;;;;5000257;28;20029;-69
2023/01/25 05:39:39;;;;;;;29.90;14.30;;;0.30;99.90;;;;;;4994799;28;20105;-68
2023/01/25 05:42:13;;;;;;;29.53;12.93;;;0.30;99.90;;;;;;5003920;28;20065;-69
2023/01/25 05:44:39;;;;;;;34.72;13.98;;;0.30;99.90;;;;;;4998816;28;20513;-69
2023/01/25 05:47:05;;;;;;;34.00;13.27;;;0.30;99.90;;;;;;5004183;28;20057;-68
2023/01/25 05:49:30;;;;;;;29.85;13.07;;;0.30;99.90;;;;;;5005421;28;20116;-68
2023/01/25 05:51:56;;;;;;;28.17;12.40;;;0.40;99.90;;;;;;5005086;28;20468;-68
2023/01/25 05:54:22;;;;;;;29.90;13.50;;;0.40;99.90;;;;;;5002906;28;20261;-68
2023/01/25 05:56:49;;;;;;;31.93;14.47;;;0.30;99.90;;;;;;5000525;28;20104;-68
2023/01/25 05:59:16;;;;;;;;;;;0.40;99.90;;;;;;5017258;28;20049;-68
2023/01/25 06:01:41;;;;;;;31.97;14.03;;;0.40;99.90;;;;;;5000325;28;19961;-69
2023/01/25 06:04:08;;;;;;;37.60;14.47;;;0.30;99.90;;;;;;5004198;28;21114;-68
2023/01/25 06:06:34;;;;;;;35.38;14.70;;;0.40;99.90;;;;;;5004020;28;20531;-68
2023/01/25 06:09:00;;;;;;;38.13;15.60;;;0.30;99.90;;;;;;5002668;28;20125;-68
2023/01/25 06:11:26;;;;;;;32.28;15.10;;;0.30;99.90;;;;;;5001718;28;20136;-68
2023/01/25 06:13:52;;;;;;;30.33;12.83;;;0.30;99.90;;;;;;5003792;28;20072;-68
2023/01/25 06:16:18;;;;;;;29.97;13.47;;;0.30;99.90;;;;;;5004958;28;20411;-69
2023/01/25 06:18:44;;;;;;;32.55;13.73;;;0.30;99.90;;;;;;5007004;28;20365;-70
2023/01/25 06:21:10;;;;;;;34.28;15.35;;;0.30;99.90;;;;;;5005539;28;20088;-68
2023/01/25 06:23:35;;;;;;;34.92;15.32;;;0.30;99.90;;;;;;5001542;28;20041;-68
2023/01/25 06:26:05;;;;;;;33.93;13.97;;;0.20;99.90;;;;;;5000835;28;20057;-69
2023/01/25 06:28:32;;;;;;;31.75;14.40;;;0.20;99.90;;;;;;5002672;28;20488;-69
2023/01/25 06:31:10;;;;;;;31.50;13.77;;;0.20;99.90;;;;;;4998056;28;20034;-69
2023/01/25 06:33:36;;;;;;;30.48;14.57;;;0.30;99.90;;;;;;4999499;28;20117;-69
2023/01/25 06:36:05;;;;;;;32.05;14.43;;;0.20;99.90;;;;;;4999734;28;20056;-69
2023/01/25 06:38:31;;;;;;;33.97;15.00;;;0.20;99.90;;;;;;4996286;28;20590;-69
2023/01/25 06:41:05;;;;;;;33.15;14.73;;;0.20;99.90;;;;;;5013127;28;20053;-68
2023/01/25 06:43:32;;;;;;;35.50;14.55;;;0.20;99.90;;;;;;5009498;28;20504;-68
2023/01/25 06:46:02;;;;;;;36.42;14.45;;;0.20;99.90;;;;;;5003377;28;20029;-73
2023/01/25 06:48:30;;;;;;;35.55;15.98;;;0.30;99.90;;;;;;5001319;28;20236;-70
2023/01/25 06:51:03;;;;;;;32.95;14.30;;;0.30;99.90;;;;;;4999873;28;20105;-73
2023/01/25 06:53:31;;;;;;;35.28;14.70;;;0.30;99.90;;;;;;5000204;28;20200;-70
2023/01/25 06:55:58;;;;;;;37.95;16.02;;;0.30;99.90;;;;;;5011983;28;20041;-72
2023/01/25 06:58:25;;;;;;;37.15;15.52;;;0.30;99.90;;;;;;5006644;28;20045;-71
2023/01/25 07:00:51;;;;;;;35.20;15.18;;;0.30;99.90;;;;;;5004051;28;20403;-71
2023/01/25 07:03:17;;;;;;;35.50;16.30;;;0.20;99.90;;;;;;5004432;28;20160;-73
2023/01/25 07:06:07;;;;;;;33.93;14.67;;;0.20;99.90;;;;;;5055809;22;20136;-83
2023/01/25 07:08:41;;;;;;;32.25;13.60;;;0.20;99.90;;;;;;5031508;28;20025;-83
2023/01/25 07:11:12;;;;;;;35.60;15.40;;;0.30;99.90;;;;;;5051606;28;20049;-83
2023/01/25 07:13:40;;;;;;;37.97;15.95;;;0.30;99.90;;;;;;5055099;28;20134;-84
2023/01/25 07:16:27;;;;;;;31.90;14.63;;;0.30;99.90;;;;;;5043748;28;20040;-83
2023/01/25 07:19:01;;;;;;;35.13;14.75;;;0.30;99.90;;;;;;5036121;28;20044;-82
2023/01/25 07:21:45;;;;;;;34.72;14.60;;;0.40;99.90;;;;;;5047426;28;20036;-84
2023/01/25 07:24:17;;;;;;;33.83;15.65;;;0.30;99.90;;;;;;5046204;28;20047;-83
2023/01/25 07:26:43;;;;;;;40.72;16.48;;;0.40;99.90;;;;;;5052644;28;20526;-81
2023/01/25 07:29:14;;;;;;;36.25;15.00;;;0.30;99.90;;;;;;5047321;28;20484;-84
2023/01/25 07:31:55;;;;;;;35.67;15.13;;;0.30;99.90;;;;;;5049872;28;20508;-84
2023/01/25 07:34:27;;;;;;;33.83;15.05;;;0.30;99.90;;;;;;5046815;28;20037;-82
2023/01/25 07:36:58;;;;;;;38.05;16.30;;;0.30;99.90;;;;;;5046434;28;20039;-82
2023/01/25 07:39:27;;;;;;;37.30;16.20;;;0.30;99.90;;;;;;5047927;28;20036;-79
2023/01/25 07:41:59;;;;;;;40.90;15.77;;;0.30;99.90;;;;;;5047985;28;20040;-81
2023/01/25 07:44:27;;;;;;;32.10;14.98;;;0.30;99.90;;;;;;5031263;28;20136;-79
2023/01/25 07:46:56;;;;;;;40.22;15.35;;;0.40;99.90;;;;;;5030489;28;20062;-81
2023/01/25 07:49:22;;;;;;;38.17;16.13;;;0.40;99.90;;;;;;5046047;28;20033;-81
2023/01/25 07:51:47;;;;;;;41.37;15.33;;;0.40;99.90;;;;;;5040118;28;20040;-82
2023/01/25 07:54:13;;;;;;;40.50;16.17;;;0.40;99.90;;;;;;5047033;28;20029;-81
2023/01/25 07:56:39;;;;;;;38.72;15.27;;;0.40;99.90;;;;;;5048604;28;20037;-81
2023/01/25 07:59:08;;;;;;;39.28;15.43;;;0.40;99.90;;;;;;5052967;28;20032;-82
2023/01/25 08:01:35;;;;;;;37.55;14.93;;;0.50;99.90;;;;;;5047529;28;20044;-81
2023/01/25 08:04:02;;;;;;;;;;;0.50;99.90;;;;;;5049042;28;20047;-81
2023/01/25 08:06:37;;;;;;;37.25;14.45;;;0.50;99.90;;;;;;5056544;28;19916;-81
2023/01/25 08:09:11;;;;;;;34.00;13.85;;;0.50;99.90;;;;;;5050913;28;20063;-82
2023/01/25 08:11:37;;;;;;;35.17;14.85;;;0.50;99.90;;;;;;5039376;28;20047;-84
2023/01/25 08:14:07;;;;;;;43.10;16.90;;;0.50;99.90;;;;;;5056863;28;20037;-84
2023/01/25 08:16:36;;;;;;;31.52;13.93;;;0.50;99.90;;;;;;5051636;28;20471;-82
2023/01/25 08:19:03;;;;;;;34.97;15.38;;;0.60;99.90;;;;;;5055390;28;20032;-82
2023/01/25 08:21:32;;;;;;;;;;;0.50;99.90;;;;;;5053858;28;20044;-81
2023/01/25 08:24:03;;;;;;;36.63;13.98;;;0.50;99.90;;;;;;5040581;28;19999;-83
2023/01/25 08:26:31;;;;;;;37.42;15.63;;;0.60;99.90;;;;;;5057438;28;20032;-82
2023/01/25 08:29:06;;;;;;;38.55;16.77;;;0.50;99.90;;;;;;5044602;28;20341;-81
2023/01/25 08:31:37;;;;;;;40.03;14.80;;;0.50;99.90;;;;;;5056217;28;20051;-82
2023/01/25 08:34:04;;;;;;;37.22;16.25;;;0.50;99.90;;;;;;5039995;28;20060;-82
2023/01/25 08:36:33;;;;;;;39.90;15.98;;;0.50;99.90;;;;;;5051808;28;20060;-82
2023/01/25 08:39:01;;;;;;;38.40;17.15;;;0.50;99.90;;;;;;5060383;28;20037;-83
2023/01/25 08:41:28;;;;;;;37.30;16.60;;;0.50;99.90;;;;;;5050692;28;20041;-82
2023/01/25 08:43:57;;;;;;;41.30;15.90;;;0.50;99.90;;;;;;5039667;28;20083;-82
2023/01/25 08:46:27;;;;;;;41.35;16.35;;;0.50;99.90;;;;;;5053135;28;20041;-82
2023/01/25 08:49:18;;;;;;;41.30;16.38;;;0.40;99.90;;;;;;5030100;28;20045;-82
2023/01/25 08:51:49;;;;;;;35.38;14.68;;;0.50;99.90;;;;;;5061296;28;20085;-82
2023/01/25 08:54:15;;;;;;;41.70;15.70;;;0.50;99.90;;;;;;5052749;28;20037;-82
2023/01/25 08:56:41;;;;;;;37.53;15.20;;;0.60;99.90;;;;;;5035426;28;20041;-83
2023/01/25 08:59:11;;;;;;;39.15;14.52;;;0.60;99.90;;;;;;5059773;28;20071;-81
2023/01/25 09:01:42;;;;;;;36.05;14.45;;;0.50;99.90;;;;;;5054529;28;20037;-82
2023/01/25 09:04:10;;;;;;;34.35;13.23;;;0.50;99.90;;;;;;5044230;28;20025;-83
2023/01/25 09:06:36;;;;;;;33.90;14.00;;;0.60;99.90;;;;;;5054932;28;20032;-82
2023/01/25 09:09:07;;;;;;;32.50;13.13;;;0.50;99.90;;;;;;5054338;28;20494;-82
2023/01/25 09:11:35;;;;;;;30.95;12.23;;;0.60;99.90;;;;;;5051047;28;20036;-82
2023/01/25 09:14:01;;;;;;;39.63;13.90;;;0.60;99.90;;;;;;5053923;28;20132;-81
2023/01/25 09:16:27;;;;;;;35.45;13.05;;;0.50;99.90;;;;;;5055834;28;20650;-82
2023/01/25 09:19:01;;;;;;;33.10;12.73;;;0.50;99.90;;;;;;5067025;28;20047;-82
2023/01/25 09:21:28;;;;;;;34.70;12.20;;;0.60;99.90;;;;;;5056196;28;20040;-85
2023/01/25 09:24:07;;;;;;;30.40;12.70;;;0.60;99.90;;;;;;5050087;28;20045;-81
2023/01/25 09:26:39;;;;;;;29.85;11.20;;;0.60;99.90;;;;;;5028900;28;20078;-82
2023/01/25 09:29:18;;;;;;;37.70;13.40;;;0.70;99.90;;;;;;5028069;28;20141;-83
2023/01/25 09:31:47;;;;;;;31.52;12.52;;;0.70;99.90;;;;;;5041977;28;20112;-83
2023/01/25 09:34:14;;;;;;;37.15;14.45;;;0.60;99.90;;;;;;5058622;28;20086;-79
2023/01/25 09:36:50;;;;;;;35.97;14.05;;;0.60;99.90;;;;;;5037661;28;20394;-83
2023/01/25 09:39:18;;;;;;;32.78;13.73;;;0.60;99.90;;;;;;5049006;28;20041;-83
2023/01/25 09:42:04;;;;;;;30.70;12.27;;;0.70;99.90;;;;;;5033708;28;20136;-82
2023/01/25 09:44:52;;;;;;;32.47;13.13;;;0.60;99.90;;;;;;5043341;28;20114;-82
2023/01/25 09:47:52;;;;;;;36.05;13.70;;;0.70;99.90;;;;;;5042947;28;20029;-83
2023/01/25 09:50:47;;;;;;;37.28;14.30;;;0.70;99.90;;;;;;5021828;28;20095;-83
2023/01/25 09:53:27;;;;;;;34.58;12.52;;;0.80;99.90;;;;;;5029210;28;20068;-82
2023/01/25 09:56:29;;;;;;;35.20;13.32;;;0.80;99.90;;;;;;5032671;28;20041;-83
2023/01/25 09:59:14;;;;;;;34.67;13.50;;;0.90;99.90;;;;;;5025201;28;20120;-83
2023/01/25 10:01:52;;;;;;;29.83;11.75;;;0.90;99.90;;;;;;5048237;28;20045;-83
2023/01/25 10:04:38;;;;;;;36.25;12.68;;;0.80;99.90;;;;;;5019011;28;20030;-82
2023/01/25 10:07:29;;;;;;;34.35;13.65;;;0.90;99.90;;;;;;5029379;28;20058;-83
2023/01/25 10:10:10;;;;;;;37.80;13.10;;;0.90;99.90;;;;;;5030579;28;20181;-83
2023/01/25 10:12:39;;;;;;;38.38;13.45;;;0.90;99.90;;;;;;5031716;28;20065;-84
2023/01/25 10:15:24;;;;;;;29.73;11.30;;;0.90;99.90;;;;;;5023064;28;20040;-83
2023/01/25 10:18:18;;;;;;;39.85;12.02;;;1.00;99.90;;;;;;5044259;28;22377;-82
2023/01/25 10:21:11;;;;;;;;;;;;;;;;;;;;;
2023/01/25 10:23:40;;;;;;;34.30;13.43;;;1.00;99.90;;;;;;5053591;28;20033;-83
2023/01/25 10:27:00;;;;;;;35.33;12.63;;;1.10;99.90;;;;;;5033795;28;20448;-83
2023/01/25 10:29:38;;;;;;;27.48;11.35;;;1.00;99.90;;;;;;5031341;28;20037;-81
2023/01/25 10:32:31;;;;;;;41.00;12.80;;;1.10;99.90;;;;;;5049998;28;20033;-83
2023/01/25 10:35:16;;;;;;;36.50;13.55;;;1.10;99.90;;;;;;5047464;28;20123;-83
2023/01/25 10:37:55;;;;;;;;;;;;;;;;;;;;;
2023/01/25 10:40:29;;;;;;;34.35;12.32;;;1.10;99.90;;;;;;5047894;28;20037;-83
2023/01/25 10:43:08;;;;;;;32.90;12.57;;;1.10;99.90;;;;;;5026731;28;20037;-83
2023/01/25 10:45:43;;;;;;;32.13;11.48;;;1.20;99.90;;;;;;5031004;28;20037;-83
2023/01/25 10:48:18;;;;;;;39.30;12.50;;;1.20;99.90;;;;;;5048219;28;20029;-82
2023/01/25 10:50:47;;;;;;;35.38;11.70;;;1.20;99.90;;;;;;5053499;28;20049;-83
2023/01/25 10:53:45;;;;;;;35.88;13.77;;;1.30;99.90;;;;;;5030574;28;20503;-81
2023/01/25 10:56:31;;;;;;;36.22;12.40;;;1.30;99.90;;;;;;5051952;28;20116;-83
2023/01/25 10:59:24;;;;;;;32.30;11.52;;;1.30;99.90;;;;;;5047177;28;20041;-83
2023/01/25 11:02:13;;;;;;;32.80;11.85;;;1.30;99.90;;;;;;5065074;28;20033;-84
2023/01/25 11:04:48;;;;;;;36.05;12.60;;;1.40;99.90;;;;;;5049501;28;20043;-83
2023/01/25 11:07:30;;;;;;;28.58;11.15;;;1.40;99.90;;;;;;5052308;28;20032;-83
2023/01/25 11:10:30;;;;;;;35.63;11.45;;;1.40;99.90;;;;;;5027480;28;20044;-83
2023/01/25 11:13:18;;;;;;;35.40;12.00;;;1.40;99.90;;;;;;5026913;28;20144;-82
2023/01/25 11:16:22;;;;;;;35.65;12.65;;;1.40;99.90;;;;;;5033825;28;20136;-82
2023/01/25 11:19:27;;;;;;;33.30;11.40;;;1.50;99.90;;;;;;5028765;28;20058;-81
2023/01/25 11:21:59;;;;;;;36.97;14.27;;;1.50;99.90;;;;;;5033327;28;20041;-83
2023/01/25 11:24:35;;;;;;;33.08;12.95;;;1.50;99.90;;;;;;5027233;28;20116;-83
2023/01/25 11:27:39;;;;;;;;;;;;;;;;;;;;;
2023/01/25 11:30:33;;;;;;;40.78;14.90;;;1.50;99.90;;;;;;5051162;28;20132;-82
2023/01/25 11:33:07;;;;;;;37.75;15.40;;;1.50;99.90;;;;;;5038949;28;20044;-82
2023/01/25 11:35:53;;;;;;;45.05;15.77;;;1.50;99.90;;;;;;5046077;28;20460;-83
2023/01/25 11:38:24;;;;;;;41.38;14.20;;;1.50;99.90;;;;;;5045914;28;20048;-83
2023/01/25 11:52:27;;;;;;;39.00;14.68;;;1.50;99.90;;;;;;4999375;28;19936;-83
2023/01/25 11:59:33;;;;;;;;;;;;;;;;;;;;;
2023/01/25 12:03:07;;;;;;;41.25;13.35;;;1.60;99.90;;;;;;4922081;29;20122;-87
2023/01/25 12:09:24;;;;;;;41.97;14.75;;;1.50;99.90;;;;;;4912685;29;20151;-84
2023/01/25 12:12:17;;;;;;;43.65;15.00;;;1.60;99.90;;;;;;4931029;29;20098;-84
2023/01/25 12:15:22;;;;;;;40.05;13.80;;;1.70;99.90;;;;;;5032878;28;20063;-86
2023/01/25 12:18:38;;;;;;;;;;;;;;;;;;;;;
2023/01/25 12:25:14;;;;;;;;;;;1.70;99.90;;;;;;5027059;22;20174;-65
2023/01/25 12:27:43;;;;;;;42.37;15.57;;;1.70;99.90;;;;;;5047233;28;19927;-65
2023/01/25 12:30:17;;;;;;;47.55;14.40;;;1.70;99.90;;;;;;5071256;28;20294;-65
2023/01/25 12:33:00;;;;;;;46.30;14.45;;;1.70;99.90;;;;;;5059346;28;20033;-65
2023/01/25 12:35:38;;;;;;;43.78;15.50;;;1.70;99.90;;;;;;5051087;28;22139;-65
2023/01/25 12:38:13;;;;;;;47.85;15.23;;;1.70;99.90;;;;;;5061653;28;20221;-65
2023/01/25 12:41:02;;;;;;;44.75;15.13;;;1.70;99.90;;;;;;5059109;28;20052;-66
2023/01/25 12:43:46;;;;;;;42.05;15.10;;;1.70;99.90;;;;;;5066934;28;20422;-65
2023/01/25 12:46:27;;;;;;;41.75;15.00;;;1.70;99.90;;;;;;5066800;28;20536;-65
2023/01/25 12:48:58;;;;;;;40.83;14.13;;;1.70;99.90;;;;;;5060820;28;20412;-65
2023/01/25 12:51:32;;;;;;;58.08;16.08;;;1.80;99.90;;;;;;5058862;28;20037;-65
2023/01/25 12:54:01;;;;;;;42.17;15.07;;;1.70;99.90;;;;;;5061252;28;20048;-65
2023/01/25 12:56:57;;;;;;;45.05;15.18;;;1.80;99.90;;;;;;5061959;28;20139;-65
2023/01/25 12:59:46;;;;;;;40.53;13.38;;;1.80;99.90;;;;;;5064881;28;20072;-65
2023/01/25 13:02:20;;;;;;;48.65;15.60;;;1.80;99.90;;;;;;5055061;28;20041;-65
2023/01/25 13:04:54;;;;;;;52.45;17.45;;;1.80;99.90;;;;;;5091125;22;20055;-84
2023/01/25 13:07:41;;;;;;;45.67;15.45;;;1.80;99.90;;;;;;5012417;28;20056;-84
2023/01/25 13:10:33;;;;;;;52.83;17.73;;;1.90;99.90;;;;;;5023838;28;20080;-84
2023/01/25 13:13:04;;;;;;;47.33;15.32;;;1.80;99.90;;;;;;5016713;28;20501;-83
2023/01/25 13:15:44;;;;;;;45.20;16.30;;;1.90;99.90;;;;;;5014819;28;20044;-84
2023/01/25 13:18:34;;;;;;;45.67;14.45;;;1.90;99.90;;;;;;5029413;28;20164;-84
2023/01/25 13:21:07;;;;;;;49.95;16.83;;;1.90;99.90;;;;;;5019770;28;20037;-85
2023/01/25 13:23:49;;;;;;;49.70;16.10;;;1.80;99.90;;;;;;5021016;28;20037;-85
2023/01/25 13:26:22;;;;;;;46.13;15.50;;;1.90;99.90;;;;;;5035297;28;20128;-84
2023/01/25 13:28:51;;;;;;;49.95;14.93;;;1.80;99.90;;;;;;5019591;28;20049;-84
2023/01/25 13:31:39;;;;;;;43.88;16.00;;;1.90;99.90;;;;;;5012270;28;20177;-81
2023/01/25 13:34:31;;;;;;;48.88;15.73;;;1.90;99.90;;;;;;5034349;28;20037;-84
2023/01/25 13:37:16;;;;;;;44.95;15.30;;;1.90;99.90;;;;;;5014271;28;20045;-84